Time;durP1;ratioP1;P1;durP2;ratioP2;P2;SDS_P1;SDS_P2;PMS_P1;PMS_P2;Temp;Humidity;BMP_temperature;BMP_pressure;BME280_temperature;BME280_humidity;BME280_pressure;Samples;Min_cycle;Max_cycle;Signal;HPM_P1;HPM_P2
2023/03/01 00:01:21;;;;;;;10.10;6.25;;;;;;;1.49;54.98;102862.56;3549837;40;20162;-67
2023/03/01 00:03:46;;;;;;;9.27;6.13;;;;;;;1.48;56.36;102852.81;3550997;40;20085;-67
2023/03/01 00:06:13;;;;;;;8.05;6.30;;;;;;;1.37;55.98;102833.28;3548902;40;20061;-67
2023/03/01 00:08:38;;;;;;;8.55;6.07;;;;;;;1.47;56.15;102853.69;3549740;40;20057;-67
2023/03/01 00:11:20;;;;;;;8.32;6.15;;;;;;;1.46;55.62;102853.66;3548426;40;20069;-67
2023/03/01 00:13:50;;;;;;;11.27;5.80;;;;;;;1.42;56.15;102851.88;3548461;40;20054;-67
2023/03/01 00:16:28;;;;;;;8.05;5.88;;;;;;;1.39;56.12;102855.38;3549835;40;20131;-67
2023/03/01 00:18:55;;;;;;;7.47;5.57;;;;;;;1.34;56.49;102847.41;3548586;40;20046;-67
2023/03/01 00:21:22;;;;;;;9.10;6.45;;;;;;;1.11;55.66;102812.75;3549873;40;20054;-67
2023/03/01 00:23:49;;;;;;;8.32;6.13;;;;;;;1.17;56.11;102819.84;3548971;40;20381;-67
2023/03/01 00:26:17;;;;;;;7.63;5.65;;;;;;;1.11;55.72;102807.47;3549212;40;20058;-67
2023/03/01 00:28:43;;;;;;;8.25;6.43;;;;;;;1.33;56.40;102855.31;3549530;40;20057;-67
2023/03/01 00:31:20;;;;;;;8.40;5.85;;;;;;;1.01;55.63;102794.97;3547972;40;20154;-67
2023/03/01 00:33:46;;;;;;;10.32;6.60;;;;;;;1.27;56.46;102850.88;3550622;40;20490;-67
2023/03/01 00:36:15;;;;;;;7.88;6.35;;;;;;;1.26;55.75;102842.88;3550895;40;20322;-67
2023/03/01 00:38:45;;;;;;;8.85;5.82;;;;;;;1.23;56.83;102842.88;3549923;40;20115;-67
2023/03/01 00:41:15;;;;;;;7.40;6.38;;;;;;;1.20;56.17;102848.13;3548197;40;20054;-67
2023/03/01 00:43:42;;;;;;;11.80;5.68;;;;;;;1.16;56.12;102853.41;3549442;40;20405;-67
2023/03/01 00:46:12;;;;;;;8.45;6.35;;;;;;;1.11;56.34;102849.84;3548017;40;20136;-67
2023/03/01 00:48:38;;;;;;;9.55;6.28;;;;;;;1.09;55.92;102855.97;3548102;40;20324;-67
2023/03/01 00:51:10;;;;;;;9.55;6.50;;;;;;;1.05;56.70;102848.88;3549326;40;20077;-68
2023/03/01 00:53:37;;;;;;;9.95;6.43;;;;;;;0.99;57.47;102836.47;3549475;40;20127;-67
2023/03/01 00:56:05;;;;;;;7.32;6.18;;;;;;;0.90;56.60;102823.13;3550008;40;20332;-67
2023/03/01 00:58:31;;;;;;;8.75;6.47;;;;;;;0.98;57.77;102839.97;3548940;40;20065;-67
2023/03/01 01:00:57;;;;;;;8.88;6.47;;;;;;;0.96;57.61;102838.19;3547778;40;20049;-67
2023/03/01 01:03:24;;;;;;;9.27;6.55;;;;;;;0.93;56.34;102829.34;3548383;40;20144;-68
2023/03/01 01:05:53;;;;;;;7.45;6.07;;;;;;;0.87;57.93;102821.34;3548242;40;20053;-67
2023/03/01 01:08:20;;;;;;;8.63;6.43;;;;;;;0.89;56.80;102821.38;3548902;40;20340;-67
2023/03/01 01:10:47;;;;;;;7.80;5.95;;;;;;;0.87;57.71;102823.09;3548752;40;20097;-69
2023/03/01 01:13:13;;;;;;;9.45;5.88;;;;;;;0.85;56.83;102819.53;3549734;40;20113;-67
2023/03/01 01:15:40;;;;;;;8.30;6.18;;;;;;;0.84;57.58;102817.78;3552139;40;20057;-67
2023/03/01 01:18:06;;;;;;;8.70;6.30;;;;;;;0.80;57.98;102808.91;3548782;40;20095;-67
2023/03/01 01:20:32;;;;;;;11.77;6.78;;;;;;;0.79;57.87;102814.16;3552502;40;20370;-67
2023/03/01 01:22:58;;;;;;;9.07;6.95;;;;;;;0.75;57.25;102813.25;3551809;40;20050;-67
2023/03/01 01:25:26;;;;;;;6.57;5.80;;;;;;;0.74;58.41;102811.50;3550023;40;20061;-68
2023/03/01 01:27:52;;;;;;;11.05;6.40;;;;;;;0.63;58.41;102787.53;3549534;40;20049;-67
2023/03/01 01:30:18;;;;;;;9.63;6.20;;;;;;;0.64;57.08;102791.09;3550748;40;20696;-67
2023/03/01 01:32:43;;;;;;;10.88;7.32;;;;;;;0.64;58.44;102797.28;3549736;40;20060;-67
2023/03/01 01:35:09;;;;;;;10.10;6.47;;;;;;;0.63;57.38;102790.19;3550237;40;20383;-67
2023/03/01 01:37:35;;;;;;;8.15;6.63;;;;;;;0.60;57.34;102782.25;3550197;40;20058;-66
2023/03/01 01:40:03;;;;;;;9.32;6.70;;;;;;;0.55;57.88;102770.72;3549002;40;20050;-67
2023/03/01 01:42:30;;;;;;;9.18;6.30;;;;;;;0.53;58.28;102776.84;3550073;40;20090;-67
2023/03/01 01:45:34;;;;;;;8.60;6.43;;;;;;;0.49;58.00;102775.03;3549211;40;20056;-67
2023/03/01 01:48:06;;;;;;;;;;;;;;;0.22;58.67;102732.44;3548652;40;20086;-67
2023/03/01 01:50:39;;;;;;;9.32;6.10;;;;;;;0.36;58.00;102764.31;3551106;40;19944;-67
2023/03/01 01:53:18;;;;;;;10.45;6.47;;;;;;;0.39;58.31;102774.06;3548259;40;20113;-68
2023/03/01 01:56:07;;;;;;;10.70;7.03;;;;;;;0.36;58.41;102772.25;3548098;40;20057;-67
2023/03/01 01:58:33;;;;;;;9.13;6.60;;;;;;;0.35;58.59;102774.88;3549325;40;20065;-67
2023/03/01 02:01:00;;;;;;;8.90;6.65;;;;;;;0.33;58.41;102766.03;3547504;40;20064;-67
2023/03/01 02:03:36;;;;;;;8.25;6.80;;;;;;;0.31;58.70;102760.72;3551046;40;20054;-67
2023/03/01 02:06:33;;;;;;;12.10;7.43;;;;;;;0.25;59.31;102752.72;3547267;40;20116;-67
2023/03/01 02:09:08;;;;;;;11.45;7.95;;;;;;;-0.22;58.77;102680.75;3548238;40;20342;-67
2023/03/01 02:11:34;;;;;;;11.50;7.82;;;;;;;0.17;58.76;102755.28;3547074;40;20062;-67
2023/03/01 02:14:00;;;;;;;9.77;7.65;;;;;;;0.15;59.04;102751.72;3549979;40;20060;-67
2023/03/01 02:16:27;;;;;;;10.32;7.43;;;;;;;-0.01;59.46;102734.78;3548517;40;20065;-67
2023/03/01 02:18:53;;;;;;;9.65;8.00;;;;;;;0.11;59.03;102749.03;3548029;40;20135;-67
2023/03/01 02:22:10;;;;;;;12.85;8.65;;;;;;;0.10;59.99;102749.91;3548771;40;20388;-67
2023/03/01 02:25:07;;;;;;;12.52;8.48;;;;;;;0.06;59.21;102741.03;3552721;40;20053;-67
2023/03/01 02:28:10;;;;;;;11.65;8.02;;;;;;;0.03;59.90;102738.34;3551545;40;20486;-67
2023/03/01 02:30:36;;;;;;;14.02;7.70;;;;;;;0.02;60.05;102741.84;3552833;40;20116;-67
2023/03/01 02:33:04;;;;;;;10.60;7.00;;;;;;;-0.01;60.64;102745.34;3552653;40;20061;-67
2023/03/01 02:35:37;;;;;;;14.63;7.80;;;;;;;-0.08;60.55;102732.03;3549420;40;20072;-66
2023/03/01 02:38:08;;;;;;;10.20;7.70;;;;;;;-0.05;59.91;102740.00;3554471;40;20069;-67
2023/03/01 02:40:38;;;;;;;10.10;7.22;;;;;;;-0.08;60.71;102750.56;3552720;40;20065;-67
2023/03/01 02:43:11;;;;;;;10.77;7.70;;;;;;;-0.16;60.82;102738.97;3552730;40;20057;-67
2023/03/01 02:45:37;;;;;;;10.27;7.20;;;;;;;-0.13;60.37;102744.31;3551262;40;20054;-67
2023/03/01 02:48:03;;;;;;;10.00;7.28;;;;;;;-0.14;60.64;102748.69;3550468;40;20067;-67
2023/03/01 02:50:28;;;;;;;8.52;6.38;;;;;;;-0.13;61.16;102752.22;3550861;40;20123;-67
2023/03/01 02:53:43;;;;;;;7.97;6.32;;;;;;;-0.14;60.50;102750.47;3551166;40;20077;-67
2023/03/01 02:56:12;;;;;;;8.13;5.82;;;;;;;-0.11;60.21;102755.78;3549281;40;20064;-67
2023/03/01 02:58:51;;;;;;;11.20;7.13;;;;;;;-0.13;60.82;102749.59;3554705;40;20142;-67
2023/03/01 03:01:19;;;;;;;9.50;6.72;;;;;;;-0.13;61.18;102746.94;3549945;40;20048;-67
2023/03/01 03:03:45;;;;;;;11.82;7.32;;;;;;;-0.12;61.28;102746.09;3547808;40;20394;-67
2023/03/01 03:06:10;;;;;;;8.65;6.22;;;;;;;-0.38;60.73;102693.78;3552268;40;20052;-66
2023/03/01 03:08:36;;;;;;;10.43;6.20;;;;;;;-0.11;61.20;102743.47;3550215;40;20646;-67
2023/03/01 03:11:02;;;;;;;9.02;6.50;;;;;;;-0.11;61.06;102738.16;3552225;40;20053;-67
2023/03/01 03:13:28;;;;;;;10.15;6.25;;;;;;;-0.10;61.23;102744.34;3551052;40;20069;-67
2023/03/01 03:15:58;;;;;;;9.65;6.40;;;;;;;-0.10;61.21;102744.34;3554609;40;20049;-67
2023/03/01 03:18:27;;;;;;;8.40;6.30;;;;;;;-0.12;60.24;102735.53;3553526;40;20101;-67
2023/03/01 03:20:54;;;;;;;8.88;6.32;;;;;;;-0.10;61.10;102739.06;3554648;40;20062;-67
2023/03/01 03:23:21;;;;;;;8.63;6.43;;;;;;;-0.09;60.53;102740.84;3554061;40;20053;-67
2023/03/01 03:25:51;;;;;;;8.45;5.95;;;;;;;-0.51;60.50;102668.03;3555438;40;20398;-67
2023/03/01 03:28:17;;;;;;;10.60;6.50;;;;;;;-0.49;61.45;102679.53;3552734;40;20057;-66
2023/03/01 03:30:44;;;;;;;10.70;6.78;;;;;;;-0.15;60.62;102746.94;3554724;40;20081;-67
2023/03/01 03:33:11;;;;;;;8.55;6.05;;;;;;;-0.16;60.69;102745.19;3555265;40;20054;-66
2023/03/01 03:35:48;;;;;;;9.85;6.85;;;;;;;-0.15;61.11;102735.47;3553867;40;20062;-67
2023/03/01 03:38:17;;;;;;;10.73;6.38;;;;;;;-0.16;60.59;102733.69;3557403;40;20404;-66
2023/03/01 03:40:50;;;;;;;10.25;6.38;;;;;;;-0.17;60.71;102735.44;3554613;40;20053;-67
2023/03/01 03:43:20;;;;;;;8.68;6.30;;;;;;;-0.21;60.94;102730.13;3547343;40;20050;-67
2023/03/01 03:45:48;;;;;;;10.82;6.43;;;;;;;-0.16;60.96;102733.69;3554408;40;20116;-67
2023/03/01 03:48:15;;;;;;;7.13;5.82;;;;;;;-0.16;61.95;102734.59;3553823;40;20092;-67
2023/03/01 03:50:47;;;;;;;8.02;5.93;;;;;;;-0.16;61.87;102738.97;3550456;40;20057;-67
2023/03/01 03:53:13;;;;;;;9.73;6.78;;;;;;;-0.18;61.25;102736.31;3551226;40;20139;-67
2023/03/01 03:55:39;;;;;;;8.65;6.30;;;;;;;-0.20;61.04;102734.53;3551543;40;20062;-67
2023/03/01 03:58:07;;;;;;;8.80;5.70;;;;;;;-0.21;61.30;102730.13;3552611;40;20077;-68
2023/03/01 04:00:37;;;;;;;11.27;6.05;;;;;;;-0.22;61.22;102730.97;3551785;40;20312;-66
2023/03/01 04:03:04;;;;;;;8.82;6.47;;;;;;;-0.27;62.37;102731.78;3554282;40;20110;-67
2023/03/01 04:05:30;;;;;;;12.18;6.30;;;;;;;-0.25;61.95;102723.91;3553764;40;20077;-67
2023/03/01 04:08:06;;;;;;;6.97;5.93;;;;;;;-0.29;62.14;102714.13;3554292;40;20095;-67
2023/03/01 04:10:45;;;;;;;7.80;5.88;;;;;;;-0.25;61.78;102721.25;3551856;40;20061;-67
2023/03/01 04:13:15;;;;;;;9.00;5.28;;;;;;;-0.27;61.47;102708.00;3547474;40;20054;-66
2023/03/01 04:15:45;;;;;;;9.15;6.07;;;;;;;-0.28;61.73;102711.53;3561805;40;20289;-67
2023/03/01 04:18:17;;;;;;;7.78;6.07;;;;;;;-0.27;62.60;102704.50;3555523;40;20052;-67
2023/03/01 04:20:44;;;;;;;7.82;5.50;;;;;;;-0.26;61.74;102707.13;3556316;40;20053;-67
2023/03/01 04:23:19;;;;;;;8.93;6.15;;;;;;;-0.42;62.20;102676.09;3553165;40;20050;-67
2023/03/01 04:25:58;;;;;;;9.38;5.63;;;;;;;-0.25;62.14;102708.06;3549834;40;20050;-67
2023/03/01 04:28:30;;;;;;;7.45;5.05;;;;;;;-0.26;62.69;102706.25;3548749;40;20084;-67
2023/03/01 04:30:58;;;;;;;11.00;5.20;;;;;;;-0.32;61.77;102699.16;3550822;40;20053;-67
2023/03/01 04:33:25;;;;;;;7.50;5.28;;;;;;;-0.28;62.50;102702.72;3550543;40;20068;-68
2023/03/01 04:35:51;;;;;;;9.38;5.40;;;;;;;-0.32;62.56;102693.88;3552288;40;20305;-67
2023/03/01 04:38:19;;;;;;;11.15;5.30;;;;;;;-0.32;61.72;102700.88;3551705;40;20046;-67
2023/03/01 04:40:45;;;;;;;8.27;5.45;;;;;;;-0.30;62.64;102705.31;3549614;40;20127;-67
2023/03/01 04:43:15;;;;;;;7.68;5.38;;;;;;;-0.31;62.65;102700.03;3552491;40;20054;-67
2023/03/01 04:45:41;;;;;;;6.75;5.55;;;;;;;-0.31;61.92;102692.13;3549852;40;20082;-67
2023/03/01 04:48:08;;;;;;;6.40;5.13;;;;;;;-0.32;61.87;102683.31;3552260;40;20054;-67
2023/03/01 04:50:33;;;;;;;10.50;6.05;;;;;;;-0.33;61.68;102678.88;3550510;40;20054;-67
2023/03/01 04:52:59;;;;;;;10.27;6.20;;;;;;;-0.31;62.36;102690.34;3550417;40;20104;-67
2023/03/01 04:55:27;;;;;;;8.10;5.95;;;;;;;-0.33;61.68;102670.94;3552971;40;20057;-68
2023/03/01 04:57:54;;;;;;;8.13;5.72;;;;;;;-0.58;61.85;102618.66;3552594;40;20135;-67
2023/03/01 05:00:22;;;;;;;9.60;6.10;;;;;;;-0.34;62.66;102670.94;3551236;40;20050;-67
2023/03/01 05:03:00;;;;;;;7.63;5.30;;;;;;;-0.42;61.89;102664.66;3549241;40;20376;-67
2023/03/01 05:05:34;;;;;;;7.45;5.28;;;;;;;-0.38;62.32;102685.88;3558309;40;20131;-67
2023/03/01 05:08:04;;;;;;;8.80;5.57;;;;;;;-0.41;61.80;102675.25;3552642;40;20128;-67
2023/03/01 05:10:34;;;;;;;7.97;5.88;;;;;;;-0.44;62.10;102675.22;3551181;40;20069;-67
2023/03/01 05:13:02;;;;;;;9.73;5.85;;;;;;;-0.47;62.35;102686.63;3548964;40;20307;-67
2023/03/01 05:15:31;;;;;;;7.72;5.38;;;;;;;-0.47;63.17;102680.44;3552026;40;20070;-67
2023/03/01 05:17:59;;;;;;;10.00;5.82;;;;;;;-0.82;62.98;102621.88;3551162;40;20331;-67
2023/03/01 05:20:28;;;;;;;9.73;6.70;;;;;;;-0.49;62.40;102680.41;3550693;40;20364;-67
2023/03/01 05:22:58;;;;;;;8.18;5.50;;;;;;;-0.49;62.52;102676.88;3552196;40;20049;-67
2023/03/01 05:25:24;;;;;;;9.43;5.88;;;;;;;-0.51;62.26;102674.25;3550715;40;20053;-67
2023/03/01 05:27:50;;;;;;;9.05;5.55;;;;;;;-0.52;62.45;102669.81;3549670;40;20083;-67
2023/03/01 05:30:17;;;;;;;8.27;5.97;;;;;;;-0.52;62.94;102661.00;3550720;40;20054;-67
2023/03/01 05:32:48;;;;;;;9.75;6.30;;;;;;;-0.54;62.88;102654.78;3555327;40;20366;-67
2023/03/01 05:35:16;;;;;;;6.82;5.63;;;;;;;-0.67;62.62;102634.38;3550690;40;20372;-67
2023/03/01 05:37:45;;;;;;;8.68;5.72;;;;;;;-0.56;63.08;102656.56;3551928;40;20086;-67
2023/03/01 05:40:19;;;;;;;7.88;5.38;;;;;;;-0.58;62.45;102642.44;3551885;40;20058;-67
2023/03/01 05:43:05;;;;;;;12.10;5.97;;;;;;;-0.66;62.39;102620.31;3548944;40;20062;-67
2023/03/01 05:45:34;;;;;;;8.30;5.93;;;;;;;-0.60;63.03;102628.31;3554234;40;20390;-67
2023/03/01 05:48:00;;;;;;;9.43;6.32;;;;;;;-0.64;62.97;102629.13;3551849;40;20049;-67
2023/03/01 05:50:29;;;;;;;9.85;6.32;;;;;;;-0.65;62.56;102644.09;3546890;40;20065;-66
2023/03/01 05:53:09;;;;;;;10.45;6.50;;;;;;;-0.68;63.13;102638.78;3550726;40;20380;-67
2023/03/01 05:55:36;;;;;;;7.72;5.65;;;;;;;-0.69;63.16;102641.41;3551532;40;20443;-67
2023/03/01 05:58:09;;;;;;;11.25;6.50;;;;;;;-0.70;62.95;102645.78;3554078;40;20046;-67
2023/03/01 06:00:35;;;;;;;9.23;5.82;;;;;;;-0.72;62.74;102637.84;3548860;40;20068;-67
2023/03/01 06:03:01;;;;;;;5.93;5.32;;;;;;;-0.77;63.87;102628.97;3552546;40;20053;-67
2023/03/01 06:05:27;;;;;;;8.60;6.00;;;;;;;-0.72;63.37;102639.59;3549448;40;20073;-66
2023/03/01 06:07:54;;;;;;;8.32;5.97;;;;;;;-0.75;63.53;102640.44;3548185;40;20057;-67
2023/03/01 06:10:22;;;;;;;8.60;5.82;;;;;;;-0.77;62.89;102634.25;3550680;40;20050;-66
2023/03/01 06:12:48;;;;;;;7.88;5.53;;;;;;;-0.77;63.58;102638.66;3549065;40;20311;-66
2023/03/01 06:15:16;;;;;;;7.72;5.47;;;;;;;-0.83;63.11;102633.28;3552690;40;20053;-67
2023/03/01 06:17:45;;;;;;;9.65;6.57;;;;;;;-0.81;62.98;102643.00;3552737;40;20100;-67
2023/03/01 06:20:19;;;;;;;9.77;6.07;;;;;;;-0.92;63.86;102618.19;3552546;40;20049;-66
2023/03/01 06:22:46;;;;;;;8.25;6.32;;;;;;;-0.83;63.94;102638.56;3551892;40;20056;-67
2023/03/01 06:25:15;;;;;;;10.13;6.47;;;;;;;-0.85;64.07;102633.28;3550290;40;20068;-67
2023/03/01 06:27:42;;;;;;;9.90;6.25;;;;;;;-0.87;64.15;102629.72;3549971;40;20397;-66
2023/03/01 06:30:12;;;;;;;11.77;6.35;;;;;;;-0.84;63.85;102647.34;3550326;40;20073;-69
2023/03/01 06:32:41;;;;;;;9.75;6.10;;;;;;;-0.82;64.42;102641.22;3551752;40;20049;-68
2023/03/01 06:35:09;;;;;;;10.60;6.50;;;;;;;-0.79;64.79;102643.91;3552946;40;20072;-69
2023/03/01 06:37:35;;;;;;;9.13;6.28;;;;;;;-0.77;64.38;102651.84;3550110;40;20061;-69
2023/03/01 06:40:07;;;;;;;9.43;6.70;;;;;;;-0.74;64.62;102644.84;3552936;40;20447;-68
2023/03/01 06:42:36;;;;;;;10.13;6.93;;;;;;;-0.69;64.42;102649.34;3551315;40;20042;-68
2023/03/01 06:45:05;;;;;;;11.02;6.57;;;;;;;-0.71;64.30;102644.91;3552974;40;20058;-68
2023/03/01 06:47:32;;;;;;;12.55;6.20;;;;;;;-0.63;64.47;102646.78;3549361;40;20117;-69
2023/03/01 06:49:59;;;;;;;10.07;7.00;;;;;;;-0.82;64.15;102608.66;3549916;40;20365;-68
2023/03/01 06:52:25;;;;;;;9.60;6.78;;;;;;;-0.56;63.81;102643.34;3552254;40;20175;-68
2023/03/01 06:54:51;;;;;;;11.88;6.32;;;;;;;-0.58;64.39;102634.50;3550988;40;20127;-69
2023/03/01 06:57:17;;;;;;;9.95;6.82;;;;;;;-0.51;63.63;102641.63;3549545;40;20061;-69
2023/03/01 06:59:42;;;;;;;9.23;6.80;;;;;;;-0.48;63.71;102645.22;3549570;40;20057;-68
2023/03/01 07:02:12;;;;;;;11.48;7.55;;;;;;;-0.42;63.98;102643.50;3548308;40;20084;-68
2023/03/01 07:04:38;;;;;;;12.93;6.97;;;;;;;-0.33;63.58;102639.22;3548008;40;20460;-68
2023/03/01 07:07:04;;;;;;;9.68;6.53;;;;;;;-0.18;63.13;102629.72;3555552;40;20049;-68
2023/03/01 07:09:29;;;;;;;10.13;7.05;;;;;;;0.01;62.84;102630.81;3549052;40;20076;-68
2023/03/01 07:11:57;;;;;;;9.70;6.75;;;;;;;0.28;61.70;102631.09;3548459;40;20312;-68
2023/03/01 07:14:26;;;;;;;13.05;7.07;;;;;;;0.46;61.76;102635.69;3549711;40;20053;-68
2023/03/01 07:16:53;;;;;;;9.60;6.50;;;;;;;0.58;60.47;102640.19;3549886;40;20049;-68
2023/03/01 07:19:20;;;;;;;9.18;6.90;;;;;;;0.68;60.68;102642.03;3550537;40;20058;-69
2023/03/01 07:21:45;;;;;;;11.70;7.35;;;;;;;0.73;60.70;102644.72;3549841;40;20066;-69
2023/03/01 07:24:11;;;;;;;12.35;7.05;;;;;;;0.56;60.72;102616.34;3549621;40;20053;-69
2023/03/01 07:26:37;;;;;;;11.13;6.95;;;;;;;0.80;59.77;102659.78;3550200;40;20061;-69
2023/03/01 07:29:07;;;;;;;13.02;6.95;;;;;;;0.82;60.91;102655.38;3548100;40;20060;-69
2023/03/01 07:31:33;;;;;;;11.52;7.03;;;;;;;0.75;59.64;102621.81;3547901;40;20109;-69
2023/03/01 07:33:59;;;;;;;9.60;6.70;;;;;;;1.03;59.52;102649.38;3550801;40;20348;-69
2023/03/01 07:36:25;;;;;;;16.50;7.28;;;;;;;1.19;59.31;102655.66;3547355;40;20067;-69
2023/03/01 07:38:51;;;;;;;10.75;7.50;;;;;;;1.34;60.31;102646.03;3550401;40;20089;-69
2023/03/01 07:41:17;;;;;;;9.32;6.38;;;;;;;1.46;59.12;102629.31;3555837;40;20041;-69
2023/03/01 07:43:42;;;;;;;8.82;6.75;;;;;;;1.80;57.85;102646.22;3548934;40;20052;-69
2023/03/01 07:46:08;;;;;;;11.52;7.38;;;;;;;2.11;58.19;102648.13;3547825;40;20309;-69
2023/03/01 07:48:34;;;;;;;9.02;6.72;;;;;;;2.33;56.64;102637.53;3548244;40;20076;-69
2023/03/01 07:51:06;;;;;;;12.95;7.38;;;;;;;2.74;55.22;102649.09;3548494;40;20508;-69
2023/03/01 07:53:33;;;;;;;9.50;6.50;;;;;;;2.66;55.32;102581.81;3545292;40;20074;-69
2023/03/01 07:56:14;;;;;;;11.50;7.00;;;;;;;3.34;53.38;102651.66;3549642;40;20054;-68
2023/03/01 07:58:43;;;;;;;9.70;6.93;;;;;;;3.58;53.11;102645.38;3548302;40;20057;-69
2023/03/01 08:01:14;;;;;;;9.77;6.93;;;;;;;3.83;52.84;102649.69;3549837;40;20045;-69
2023/03/01 08:03:40;;;;;;;8.98;6.45;;;;;;;4.08;52.33;102645.16;3546479;40;20070;-69
2023/03/01 08:06:09;;;;;;;8.90;6.50;;;;;;;4.32;51.06;102657.44;3549250;40;20093;-69
2023/03/01 08:08:36;;;;;;;12.02;6.47;;;;;;;4.48;50.94;102636.03;3547984;40;20125;-70
2023/03/01 08:11:04;;;;;;;10.57;7.05;;;;;;;4.87;49.55;102650.78;3548616;40;20066;-68
2023/03/01 08:13:31;;;;;;;10.48;6.70;;;;;;;5.13;48.63;102647.88;3547974;40;20056;-69
2023/03/01 08:16:15;;;;;;;8.82;6.70;;;;;;;5.37;48.73;102636.09;3549506;40;20057;-69
2023/03/01 08:18:40;;;;;;;;;;;;;;;5.59;47.83;102642.94;3550870;40;20066;-69
2023/03/01 08:21:11;;;;;;;9.07;6.95;;;;;;;5.71;47.65;102638.34;3551937;40;19937;-69
2023/03/01 08:23:38;;;;;;;9.73;6.25;;;;;;;5.78;46.48;102638.25;3551789;40;20054;-70
2023/03/01 08:26:20;;;;;;;10.63;7.20;;;;;;;5.91;46.86;102651.47;3554629;40;20357;-69
2023/03/01 08:28:48;;;;;;;10.15;6.82;;;;;;;6.05;46.64;102642.38;3550078;40;20054;-70
2023/03/01 08:31:23;;;;;;;10.13;6.53;;;;;;;6.23;45.72;102640.34;3549841;40;20128;-69
2023/03/01 08:33:56;;;;;;;11.88;6.78;;;;;;;5.73;46.16;102533.38;3559606;40;20057;-69
2023/03/01 08:36:28;;;;;;;13.25;6.85;;;;;;;6.57;45.71;102645.19;3551187;40;20081;-69
2023/03/01 08:38:55;;;;;;;8.25;6.45;;;;;;;6.82;45.63;102640.31;3551331;40;20046;-70
2023/03/01 08:41:21;;;;;;;10.82;6.15;;;;;;;7.05;44.67;102626.56;3549215;40;20050;-70
2023/03/01 08:43:47;;;;;;;9.50;6.65;;;;;;;7.29;44.94;102630.53;3548759;40;20062;-70
2023/03/01 08:46:13;;;;;;;9.52;6.45;;;;;;;7.54;43.00;102623.81;3549533;40;20358;-70
2023/03/01 08:48:42;;;;;;;8.38;6.50;;;;;;;7.69;43.75;102625.28;3548881;40;20089;-67
2023/03/01 08:51:09;;;;;;;9.50;6.30;;;;;;;7.86;42.48;102611.53;3549372;40;20045;-68
2023/03/01 08:53:35;;;;;;;6.70;5.78;;;;;;;7.87;41.72;102607.97;3548519;40;20128;-68
2023/03/01 08:56:02;;;;;;;7.20;5.95;;;;;;;7.90;41.46;102610.56;3550532;40;20054;-69
2023/03/01 08:58:29;;;;;;;8.52;6.03;;;;;;;7.90;42.34;102619.47;3548667;40;20069;-68
2023/03/01 09:00:56;;;;;;;10.68;5.93;;;;;;;8.06;41.66;102617.34;3551144;40;20296;-70
2023/03/01 09:03:23;;;;;;;8.48;5.95;;;;;;;8.13;42.06;102621.63;3548010;40;20417;-70
2023/03/01 09:05:50;;;;;;;7.88;6.18;;;;;;;8.24;41.04;102613.34;3549140;40;20404;-70
2023/03/01 09:08:17;;;;;;;9.70;6.00;;;;;;;8.29;40.64;102613.25;3550690;40;20047;-68
2023/03/01 09:10:42;;;;;;;7.35;5.90;;;;;;;8.32;40.49;102600.66;3549291;40;20054;-68
2023/03/01 09:13:09;;;;;;;8.35;5.68;;;;;;;8.37;40.07;102608.56;3549218;40;20060;-68
2023/03/01 09:15:37;;;;;;;7.97;5.93;;;;;;;8.50;39.42;102611.88;3546843;40;20136;-68
2023/03/01 09:18:04;;;;;;;7.80;5.57;;;;;;;8.64;39.88;102601.69;3547157;40;20057;-68
2023/03/01 09:20:31;;;;;;;8.65;5.57;;;;;;;8.68;39.05;102591.78;3551410;40;20058;-68
2023/03/01 09:22:58;;;;;;;6.32;5.18;;;;;;;8.71;39.11;102586.34;3551942;40;20090;-68
2023/03/01 09:25:24;;;;;;;9.38;5.57;;;;;;;8.58;38.78;102549.13;3552294;40;20080;-68
2023/03/01 09:27:54;;;;;;;11.48;5.70;;;;;;;9.01;39.37;102598.94;3549124;40;20097;-69
2023/03/01 09:30:21;;;;;;;8.38;5.80;;;;;;;9.09;38.49;102587.13;3551302;40;20123;-69
2023/03/01 09:32:47;;;;;;;6.90;5.45;;;;;;;9.18;37.82;102584.19;3548334;40;20053;-68
2023/03/01 09:35:13;;;;;;;9.32;5.60;;;;;;;9.18;37.67;102578.81;3548715;40;20058;-68
2023/03/01 09:37:42;;;;;;;9.00;5.68;;;;;;;8.65;37.64;102488.19;3547990;40;20061;-68
2023/03/01 09:40:22;;;;;;;8.93;6.03;;;;;;;9.27;37.50;102586.63;3548874;40;20100;-68
2023/03/01 09:43:43;;;;;;;6.50;5.57;;;;;;;9.20;38.28;102579.69;3549106;40;20049;-69
2023/03/01 09:46:16;;;;;;;7.90;5.95;;;;;;;9.35;38.21;102581.91;3545068;40;20084;-69
2023/03/01 09:48:51;;;;;;;10.80;5.95;;;;;;;9.58;38.38;102577.66;3548208;40;20143;-69
2023/03/01 09:51:27;;;;;;;9.45;5.97;;;;;;;9.61;38.41;102569.53;3549437;40;20093;-68
2023/03/01 09:53:54;;;;;;;8.52;5.82;;;;;;;9.78;37.76;102561.84;3548735;40;20620;-68
2023/03/01 09:56:56;;;;;;;11.90;5.95;;;;;;;9.80;36.08;102564.47;3549671;40;20050;-69
2023/03/01 09:59:55;;;;;;;8.65;5.65;;;;;;;9.56;36.19;102560.75;3542623;40;20444;-68
2023/03/01 10:02:44;;;;;;;7.95;5.35;;;;;;;9.69;36.21;102551.38;3547264;40;20269;-68
2023/03/01 10:05:41;;;;;;;8.23;5.55;;;;;;;9.90;34.85;102550.72;3547501;40;20277;-68
2023/03/01 10:08:38;;;;;;;7.13;5.28;;;;;;;9.93;35.39;102545.25;3547005;40;20131;-68
2023/03/01 10:11:21;;;;;;;7.43;5.75;;;;;;;10.15;36.16;102534.72;3549945;40;20049;-68
2023/03/01 10:14:32;;;;;;;7.70;5.60;;;;;;;10.00;34.11;102543.25;3547836;40;20311;-68
2023/03/01 10:17:09;;;;;;;7.80;5.75;;;;;;;9.90;35.59;102529.25;3551163;40;20488;-68
2023/03/01 10:19:46;;;;;;;7.95;5.88;;;;;;;10.02;35.27;102527.06;3552003;40;20061;-68
2023/03/01 10:22:22;;;;;;;9.88;6.20;;;;;;;10.06;35.49;102524.25;3548268;40;20324;-68
2023/03/01 10:24:51;;;;;;;7.78;5.82;;;;;;;9.91;35.00;102525.63;3547800;40;20409;-68
2023/03/01 10:27:24;;;;;;;7.25;5.57;;;;;;;9.91;36.17;102520.25;3547089;40;20132;-68
2023/03/01 10:30:22;;;;;;;12.07;7.15;;;;;;;10.04;35.78;102518.03;3550166;40;20054;-68
2023/03/01 10:32:53;;;;;;;6.32;5.20;;;;;;;10.19;35.28;102525.59;3548118;40;20340;-69
2023/03/01 10:35:27;;;;;;;7.63;5.30;;;;;;;10.26;35.01;102507.50;3547339;40;20470;-68
2023/03/01 10:38:11;;;;;;;9.05;6.05;;;;;;;10.09;35.44;102446.22;3547742;40;20058;-69
2023/03/01 10:40:59;;;;;;;7.05;5.40;;;;;;;10.33;34.58;102465.16;3548385;40;20380;-69
2023/03/01 10:43:45;;;;;;;8.23;5.80;;;;;;;10.62;33.79;102509.84;3547179;40;20126;-68
2023/03/01 10:46:27;;;;;;;7.93;5.82;;;;;;;10.41;34.23;102460.41;3547847;40;20050;-68
2023/03/01 10:49:22;;;;;;;8.68;5.57;;;;;;;10.60;34.41;102474.09;3546938;40;20058;-68
2023/03/01 10:51:52;;;;;;;7.20;5.53;;;;;;;10.98;33.43;102504.97;3554496;40;20080;-69
2023/03/01 10:54:25;;;;;;;8.05;5.30;;;;;;;10.96;33.48;102508.66;3545629;40;20404;-68
2023/03/01 10:56:59;;;;;;;8.93;5.72;;;;;;;11.08;32.80;102506.38;3547056;40;20298;-68
2023/03/01 10:59:28;;;;;;;8.55;5.75;;;;;;;10.97;32.55;102497.81;3547966;40;20058;-68
2023/03/01 11:02:22;;;;;;;8.38;6.03;;;;;;;11.12;32.65;102501.75;3547848;40;20072;-69
2023/03/01 11:05:19;;;;;;;7.53;5.63;;;;;;;11.19;32.93;102470.97;3545312;40;20062;-68
2023/03/01 11:08:01;;;;;;;10.10;6.35;;;;;;;11.42;32.30;102505.13;3550540;40;20053;-68
2023/03/01 11:10:34;;;;;;;8.07;5.93;;;;;;;11.45;32.04;102470.00;3546560;40;20407;-68
2023/03/01 11:13:29;;;;;;;8.17;6.40;;;;;;;11.42;32.79;102501.53;3547477;40;20058;-68
2023/03/01 11:16:08;;;;;;;7.97;6.22;;;;;;;11.67;33.02;102510.44;3543542;40;20058;-68
2023/03/01 11:18:33;;;;;;;8.45;6.57;;;;;;;11.92;32.49;102496.00;3547817;40;20046;-69
2023/03/01 11:21:03;;;;;;;8.23;6.53;;;;;;;11.98;32.23;102488.53;3548939;40;20058;-68
2023/03/01 11:23:31;;;;;;;8.55;7.07;;;;;;;12.13;31.56;102480.78;3546412;40;20054;-68
2023/03/01 11:26:08;;;;;;;8.80;6.50;;;;;;;12.19;31.38;102497.56;3549856;40;20057;-69
2023/03/01 11:28:40;;;;;;;10.27;6.50;;;;;;;12.23;30.05;102501.88;3547134;40;20054;-68
2023/03/01 11:31:14;;;;;;;8.25;6.60;;;;;;;12.32;31.18;102503.31;3546770;40;20402;-69
2023/03/01 11:33:59;;;;;;;9.45;6.47;;;;;;;12.55;31.01;102491.53;3549540;40;20050;-68
2023/03/01 11:36:48;;;;;;;10.95;6.78;;;;;;;12.72;30.46;102505.19;3547022;40;20121;-68
2023/03/01 11:39:51;;;;;;;9.00;6.60;;;;;;;12.68;30.35;102490.03;3547253;40;20069;-68
2023/03/01 11:42:55;;;;;;;7.60;6.23;;;;;;;12.78;30.37;102486.03;3554692;40;20057;-68
2023/03/01 11:45:30;;;;;;;7.55;6.13;;;;;;;12.95;29.78;102485.25;3545638;40;20090;-69
2023/03/01 11:48:19;;;;;;;7.72;6.10;;;;;;;12.88;29.76;102477.50;3555096;40;20057;-68